Time;durP1;ratioP1;P1;durP2;ratioP2;P2;SDS_P1;SDS_P2;PMS_P1;PMS_P2;Temp;Humidity;BMP_temperature;BMP_pressure;BME280_temperature;BME280_humidity;BME280_pressure;Samples;Min_cycle;Max_cycle;Signal;HPM_P1;HPM_P2
2024/01/22 00:01:16;;;;;;;106.68;39.78;;;;;;;2.37;100.00;99797.16;5077435;28;20117;-73
2024/01/22 00:03:41;;;;;;;93.07;37.90;;;;;;;2.37;100.00;99797.97;5075551;28;20082;-74
2024/01/22 00:06:07;;;;;;;106.45;40.83;;;;;;;2.38;100.00;99796.13;5076611;28;20078;-73
2024/01/22 00:08:33;;;;;;;93.35;34.88;;;;;;;2.35;100.00;99784.03;5058351;28;20032;-74
2024/01/22 00:10:58;;;;;;;97.47;40.63;;;;;;;2.34;100.00;99769.94;5059255;28;20483;-74
2024/01/22 00:13:23;;;;;;;96.10;37.80;;;;;;;2.35;100.00;99771.59;5059412;28;20063;-73
2024/01/22 00:15:49;;;;;;;83.82;33.30;;;;;;;2.33;100.00;99725.81;5059458;28;20044;-73
2024/01/22 00:18:15;;;;;;;97.72;38.28;;;;;;;2.25;100.00;99723.19;5043078;28;20052;-73
2024/01/22 00:20:40;;;;;;;90.88;38.55;;;;;;;2.37;100.00;99723.63;5075178;28;20436;-73
2024/01/22 00:23:07;;;;;;;79.45;33.88;;;;;;;2.19;100.00;99702.66;5061052;28;20036;-74
2024/01/22 00:25:32;;;;;;;80.05;35.72;;;;;;;2.28;100.00;99695.47;5059508;28;20025;-73
2024/01/22 00:27:58;;;;;;;83.50;36.30;;;;;;;2.35;100.00;99691.13;5085481;28;20090;-74
2024/01/22 00:30:23;;;;;;;82.57;37.70;;;;;;;2.26;100.00;99657.66;5051882;28;20399;-74
2024/01/22 00:32:51;;;;;;;86.63;35.72;;;;;;;2.38;100.00;99664.22;5060565;28;20033;-74
2024/01/22 00:35:18;;;;;;;93.30;37.30;;;;;;;2.40;100.00;99651.63;5078152;28;20055;-74
2024/01/22 00:37:43;;;;;;;93.85;36.90;;;;;;;2.29;100.00;99630.78;5074131;28;20032;-73
2024/01/22 00:40:09;;;;;;;84.03;36.53;;;;;;;2.37;100.00;99621.94;5057958;28;20127;-73
2024/01/22 00:42:36;;;;;;;89.50;34.17;;;;;;;2.37;100.00;99608.66;5059771;28;20033;-73
2024/01/22 00:45:02;;;;;;;86.50;36.20;;;;;;;2.35;100.00;99583.13;5076055;28;20035;-74
2024/01/22 00:47:27;;;;;;;85.25;36.72;;;;;;;2.41;100.00;99568.31;5075495;28;20024;-73
2024/01/22 00:49:53;;;;;;;94.13;37.50;;;;;;;2.22;100.00;99564.31;5073324;28;20032;-73
2024/01/22 00:52:18;;;;;;;98.30;36.75;;;;;;;2.35;100.00;99564.53;5057075;28;20043;-74
2024/01/22 00:54:43;;;;;;;93.13;36.25;;;;;;;2.07;100.00;99513.78;5074428;28;20119;-74
2024/01/22 00:57:09;;;;;;;96.07;35.78;;;;;;;2.33;100.00;99539.19;5075726;28;20471;-73
2024/01/22 00:59:36;;;;;;;85.22;35.70;;;;;;;2.19;100.00;99494.84;5075553;28;20133;-73
2024/01/22 01:02:02;;;;;;;104.82;37.13;;;;;;;2.33;100.00;99524.06;5075694;28;20028;-74
2024/01/22 01:04:28;;;;;;;95.95;36.50;;;;;;;2.32;100.00;99505.69;5041542;28;20024;-73
2024/01/22 01:06:54;;;;;;;91.88;36.20;;;;;;;2.30;100.00;99473.16;5074146;28;20553;-73
2024/01/22 01:09:19;;;;;;;91.22;33.80;;;;;;;2.29;100.00;99464.38;5074555;28;20123;-73
2024/01/22 01:11:44;;;;;;;92.75;34.85;;;;;;;2.27;100.00;99446.97;5074797;28;20021;-74
2024/01/22 01:14:12;;;;;;;89.93;34.53;;;;;;;2.26;100.00;99432.06;5076330;28;20446;-74
2024/01/22 01:16:37;;;;;;;87.93;31.10;;;;;;;2.24;100.00;99408.34;5074453;28;20055;-73
2024/01/22 01:19:22;;;;;;;87.22;30.30;;;;;;;2.26;100.00;99393.06;5076154;28;20035;-74
2024/01/22 01:21:47;;;;;;;71.10;26.17;;;;;;;2.29;100.00;99394.56;5073566;28;20032;-74
2024/01/22 01:24:12;;;;;;;79.93;28.25;;;;;;;2.16;100.00;99350.06;5049809;28;20035;-73
2024/01/22 01:26:47;;;;;;;78.43;30.95;;;;;;;2.17;100.00;99348.22;5089783;28;20032;-74
2024/01/22 01:29:14;;;;;;;74.95;29.83;;;;;;;2.28;100.00;99392.88;5081573;28;20036;-73
2024/01/22 01:31:39;;;;;;;61.83;26.95;;;;;;;2.19;100.00;99381.53;5077720;28;20108;-73
2024/01/22 01:34:05;;;;;;;85.07;30.42;;;;;;;2.30;100.00;99391.72;5076585;28;20056;-73
2024/01/22 01:36:30;;;;;;;63.58;21.63;;;;;;;2.32;100.00;99386.25;5041916;28;20109;-73
2024/01/22 01:38:56;;;;;;;89.90;30.83;;;;;;;2.30;100.00;99367.81;5074359;28;20028;-73
2024/01/22 01:41:22;;;;;;;76.20;26.40;;;;;;;2.33;100.00;99364.81;5056937;28;20031;-74
2024/01/22 01:43:47;;;;;;;73.45;25.75;;;;;;;2.33;100.00;99346.22;5073176;28;20028;-73
2024/01/22 01:46:14;;;;;;;80.05;27.75;;;;;;;2.35;100.00;99352.19;5075828;28;20035;-74
2024/01/22 01:48:42;;;;;;;74.28;24.88;;;;;;;2.30;100.00;99325.34;5057001;28;20086;-73
2024/01/22 01:51:10;;;;;;;66.95;22.42;;;;;;;2.34;100.00;99301.91;5076043;28;20036;-74
2024/01/22 01:53:36;;;;;;;75.78;27.88;;;;;;;2.30;100.00;99298.00;5082220;28;20088;-73
2024/01/22 01:56:02;;;;;;;58.20;23.25;;;;;;;2.34;100.00;99291.31;5073796;28;20024;-73
2024/01/22 01:58:27;;;;;;;77.53;24.30;;;;;;;2.33;100.00;99297.63;5072168;28;20021;-73
2024/01/22 02:00:56;;;;;;;72.75;25.13;;;;;;;2.35;100.00;99280.53;5057953;28;20043;-74
2024/01/22 02:03:22;;;;;;;67.25;22.67;;;;;;;2.35;100.00;99267.25;5073629;28;20035;-74
2024/01/22 02:05:49;;;;;;;55.17;20.08;;;;;;;2.26;100.00;99228.53;5072344;28;20402;-74
2024/01/22 02:08:14;;;;;;;59.67;20.45;;;;;;;2.34;100.00;99220.47;5042317;28;20036;-74
2024/01/22 02:10:40;;;;;;;61.13;21.67;;;;;;;2.32;100.00;99219.84;5075768;28;20024;-73
2024/01/22 02:13:08;;;;;;;56.28;20.00;;;;;;;2.29;100.00;99206.94;5074452;28;20040;-74
2024/01/22 02:15:34;;;;;;;63.95;22.60;;;;;;;1.95;100.00;99154.44;5074851;28;20411;-73
2024/01/22 02:18:01;;;;;;;58.17;19.73;;;;;;;2.28;100.00;99213.22;5075231;28;20031;-74
2024/01/22 02:20:28;;;;;;;54.17;20.90;;;;;;;2.26;100.00;99194.03;5102037;28;20039;-75
2024/01/22 02:22:54;;;;;;;68.78;21.15;;;;;;;2.29;100.00;99198.97;5085812;28;20036;-74
2024/01/22 02:25:19;;;;;;;55.88;18.45;;;;;;;2.23;100.00;99181.13;5052671;28;20095;-73
2024/01/22 02:27:45;;;;;;;66.88;19.73;;;;;;;2.30;100.00;99182.03;5079931;28;20033;-73
2024/01/22 02:30:11;;;;;;;54.47;16.33;;;;;;;2.30;100.00;99168.75;5079304;28;20028;-73
2024/01/22 02:32:37;;;;;;;45.28;14.88;;;;;;;2.30;100.00;99152.03;5062606;28;20090;-73
2024/01/22 02:35:02;;;;;;;41.65;15.75;;;;;;;2.28;100.00;99146.88;5085398;28;20138;-74
2024/01/22 02:37:29;;;;;;;56.08;19.17;;;;;;;2.27;100.00;99126.66;5060433;28;20028;-74
2024/01/22 02:39:55;;;;;;;46.70;15.25;;;;;;;2.29;100.00;99100.78;5078349;28;20037;-73
2024/01/22 02:42:22;;;;;;;51.42;18.88;;;;;;;2.30;100.00;99123.63;5060729;28;20052;-74
2024/01/22 02:44:47;;;;;;;55.95;19.55;;;;;;;2.29;100.00;99105.25;5061864;28;20740;-75
2024/01/22 02:47:13;;;;;;;55.80;19.67;;;;;;;2.21;100.00;99061.06;5077734;28;20112;-74
2024/01/22 02:49:41;;;;;;;47.70;15.82;;;;;;;2.31;100.00;99066.88;5044619;28;20059;-74
2024/01/22 02:52:07;;;;;;;69.93;19.60;;;;;;;2.31;100.00;99061.56;5077454;28;20047;-73
2024/01/22 02:54:32;;;;;;;52.60;17.70;;;;;;;2.31;100.00;99050.97;5079287;28;20033;-74
2024/01/22 02:56:58;;;;;;;50.20;17.73;;;;;;;2.32;100.00;99055.28;5078193;28;20076;-74
2024/01/22 02:59:25;;;;;;;53.58;17.30;;;;;;;2.34;100.00;99047.13;5095539;28;20032;-74
2024/01/22 03:01:50;;;;;;;52.80;15.52;;;;;;;2.36;100.00;99037.16;5078077;28;20034;-74
2024/01/22 03:04:16;;;;;;;57.50;17.98;;;;;;;2.35;100.00;99008.94;5043822;28;20096;-74
2024/01/22 03:06:41;;;;;;;60.38;17.90;;;;;;;2.37;100.00;99030.81;5077622;28;20043;-74
2024/01/22 03:09:06;;;;;;;41.60;14.48;;;;;;;2.29;100.00;98993.81;5059368;28;20390;-73
2024/01/22 03:11:32;;;;;;;59.17;17.25;;;;;;;2.26;100.00;98984.38;5075621;28;20035;-74
2024/01/22 03:13:58;;;;;;;55.72;16.58;;;;;;;2.39;100.00;99001.44;5084801;28;20028;-73
2024/01/22 03:16:24;;;;;;;45.10;15.00;;;;;;;2.37;100.00;98982.22;5051303;28;20123;-73
2024/01/22 03:18:49;;;;;;;54.25;18.05;;;;;;;2.45;100.00;98988.22;5076846;28;20021;-75
2024/01/22 03:21:14;;;;;;;44.90;13.98;;;;;;;2.48;100.00;98973.72;5067177;28;20028;-73
2024/01/22 03:23:43;;;;;;;43.80;12.63;;;;;;;2.41;100.00;98941.00;5062480;28;20032;-74
2024/01/22 03:26:30;;;;;;;46.50;15.57;;;;;;;2.50;100.00;98939.84;5078374;28;20080;-74
2024/01/22 03:29:01;;;;;;;46.80;13.85;;;;;;;2.50;100.00;98948.63;5062655;28;20055;-74
2024/01/22 03:31:29;;;;;;;50.33;15.93;;;;;;;2.52;100.00;98933.34;5060635;28;20245;-73
2024/01/22 03:33:55;;;;;;;56.60;16.48;;;;;;;2.46;100.00;98899.59;5077631;28;20101;-73
2024/01/22 03:36:24;;;;;;;48.13;13.75;;;;;;;2.56;100.00;98897.44;5076804;28;20044;-73
2024/01/22 03:38:51;;;;;;;65.30;16.67;;;;;;;2.44;100.00;98888.34;5076320;28;20081;-74
2024/01/22 03:41:18;;;;;;;57.70;15.15;;;;;;;2.51;100.00;98894.53;5075819;28;20056;-73
2024/01/22 03:43:44;;;;;;;50.33;12.90;;;;;;;2.44;100.00;98866.28;5076497;28;20391;-74
2024/01/22 03:46:11;;;;;;;60.85;15.48;;;;;;;2.59;100.00;98867.03;5076801;28;20039;-74
2024/01/22 03:48:36;;;;;;;62.25;14.65;;;;;;;2.62;100.00;98874.59;5059859;28;20029;-73
2024/01/22 03:51:02;;;;;;;51.72;14.10;;;;;;;2.54;100.00;98848.19;5075251;28;20102;-74
2024/01/22 03:53:27;;;;;;;56.03;14.18;;;;;;;2.65;100.00;98871.56;5077785;28;20075;-74
2024/01/22 03:55:53;;;;;;;56.55;13.35;;;;;;;2.69;100.00;98870.13;5080550;28;20027;-73
2024/01/22 03:58:19;;;;;;;45.00;12.07;;;;;;;2.70;100.00;98874.44;5064141;28;20029;-74
2024/01/22 04:01:03;;;;;;;41.45;12.25;;;;;;;2.74;100.00;98865.03;5076393;28;20032;-74
2024/01/22 04:03:31;;;;;;;51.00;12.07;;;;;;;2.66;100.00;98821.91;5059939;28;20025;-74
2024/01/22 04:05:56;;;;;;;58.53;12.50;;;;;;;2.76;100.00;98827.69;5077201;28;20486;-74
2024/01/22 04:08:23;;;;;;;42.95;10.68;;;;;;;2.86;100.00;98838.75;5076968;28;20040;-74
2024/01/22 04:10:49;;;;;;;55.70;11.60;;;;;;;2.88;100.00;98834.09;5061071;28;20478;-74
2024/01/22 04:13:15;;;;;;;46.30;10.93;;;;;;;2.91;100.00;98843.47;5092583;28;20078;-74
2024/01/22 04:15:41;;;;;;;55.72;11.82;;;;;;;2.93;100.00;98815.69;5091739;28;20032;-74
2024/01/22 04:18:07;;;;;;;60.00;12.50;;;;;;;2.87;100.00;98792.56;5078953;28;20048;-74
2024/01/22 04:20:32;;;;;;;46.38;11.23;;;;;;;2.95;100.00;98800.38;5043221;28;20372;-74
2024/01/22 04:22:58;;;;;;;40.90;7.65;;;;;;;2.99;100.00;98777.72;5057776;28;20024;-74
2024/01/22 04:25:23;;;;;;;43.38;10.57;;;;;;;3.03;100.00;98794.06;5076353;28;20028;-74
2024/01/22 04:27:49;;;;;;;45.08;10.70;;;;;;;3.04;100.00;98774.44;5075926;28;20021;-74
2024/01/22 04:30:15;;;;;;;46.35;11.15;;;;;;;3.04;100.00;98772.59;5082044;28;20032;-74
2024/01/22 04:32:40;;;;;;;45.72;11.02;;;;;;;3.06;100.00;98775.06;5081513;28;20047;-73
2024/01/22 04:35:07;;;;;;;42.83;10.63;;;;;;;3.08;100.00;98740.31;5062223;28;20556;-74
2024/01/22 04:37:34;;;;;;;40.95;9.65;;;;;;;3.04;100.00;98737.25;5074460;28;20064;-74
2024/01/22 04:40:14;;;;;;;38.63;9.35;;;;;;;3.10;100.00;98741.75;5057350;28;20048;-74
2024/01/22 04:42:44;;;;;;;48.83;10.52;;;;;;;2.97;100.00;98712.50;5091143;28;20047;-74
2024/01/22 04:45:11;;;;;;;39.97;10.13;;;;;;;2.92;100.00;98699.03;5075977;28;20032;-74
2024/01/22 04:47:37;;;;;;;41.60;9.20;;;;;;;3.13;100.00;98708.66;5076269;28;20048;-75
2024/01/22 04:50:02;;;;;;;36.08;9.30;;;;;;;3.03;100.00;98693.91;5077327;28;20368;-74
2024/01/22 04:52:30;;;;;;;40.67;10.50;;;;;;;3.10;100.00;98701.91;5075248;28;20033;-75
2024/01/22 04:54:55;;;;;;;29.65;9.15;;;;;;;3.15;100.00;98686.19;5075008;28;20086;-74
2024/01/22 04:57:59;;;;;;;35.03;8.60;;;;;;;3.17;100.00;98696.59;5076777;28;20032;-75
2024/01/22 05:00:25;;;;;;;36.38;9.23;;;;;;;3.14;100.00;98659.78;5091214;28;20130;-75
2024/01/22 05:02:51;;;;;;;29.90;9.60;;;;;;;3.17;100.00;98649.56;5074192;28;20056;-75
2024/01/22 05:05:17;;;;;;;40.40;9.35;;;;;;;2.98;100.00;98613.19;5077164;28;20028;-75
2024/01/22 05:07:43;;;;;;;38.63;10.80;;;;;;;3.16;100.00;98632.00;5082404;28;20398;-75
2024/01/22 05:10:13;;;;;;;42.58;11.52;;;;;;;3.13;100.00;98616.47;5090438;28;20028;-74
2024/01/22 05:12:41;;;;;;;37.50;11.20;;;;;;;3.13;100.00;98629.75;5062005;28;20611;-75
2024/01/22 05:15:12;;;;;;;45.30;12.82;;;;;;;3.13;100.00;98620.97;5078275;28;20032;-75
2024/01/22 05:17:38;;;;;;;45.42;11.88;;;;;;;3.10;100.00;98603.59;5074933;28;20043;-75
2024/01/22 05:20:06;;;;;;;40.78;13.25;;;;;;;3.16;100.00;98584.16;5059512;28;20028;-75
2024/01/22 05:22:32;;;;;;;54.78;13.43;;;;;;;3.14;100.00;98583.53;5073289;28;20020;-76
2024/01/22 05:24:58;;;;;;;42.97;12.43;;;;;;;3.18;100.00;98568.84;5041293;28;20025;-76
2024/01/22 05:27:24;;;;;;;43.13;13.07;;;;;;;3.19;100.00;98583.75;5057013;28;20043;-75
2024/01/22 05:29:50;;;;;;;48.53;12.98;;;;;;;3.19;100.00;98578.44;5076193;28;20438;-75
2024/01/22 05:32:16;;;;;;;44.25;12.70;;;;;;;3.20;100.00;98569.44;5075609;28;20033;-74
2024/01/22 05:34:41;;;;;;;52.67;11.88;;;;;;;3.20;100.00;98539.41;5074448;28;20028;-74
2024/01/22 05:37:06;;;;;;;56.20;12.55;;;;;;;3.20;100.00;98540.22;5057260;28;20029;-75
2024/01/22 05:39:32;;;;;;;44.75;10.02;;;;;;;3.21;100.00;98533.88;5074311;28;20037;-75
2024/01/22 05:41:57;;;;;;;51.40;11.88;;;;;;;3.22;100.00;98510.78;5056976;28;20497;-74
2024/01/22 05:44:24;;;;;;;47.88;11.88;;;;;;;3.23;100.00;98525.69;5040555;28;20129;-74
2024/01/22 05:46:51;;;;;;;50.15;11.27;;;;;;;3.25;100.00;98508.53;5073906;28;20036;-75
2024/01/22 05:49:18;;;;;;;43.28;8.98;;;;;;;3.25;100.00;98470.50;5039893;28;20024;-74
2024/01/22 05:51:44;;;;;;;47.95;11.70;;;;;;;3.26;100.00;98483.56;5057642;28;20449;-74
2024/01/22 05:54:11;;;;;;;38.22;9.57;;;;;;;3.29;100.00;98480.50;5038061;28;20059;-74
2024/01/22 05:56:37;;;;;;;53.60;10.80;;;;;;;3.30;100.00;98470.69;5072028;28;20039;-74
2024/01/22 05:59:04;;;;;;;49.22;11.32;;;;;;;3.30;100.00;98474.16;5057101;28;20042;-74
2024/01/22 06:01:29;;;;;;;59.20;11.13;;;;;;;3.14;100.00;98436.59;5074938;28;20024;-75
2024/01/22 06:03:55;;;;;;;44.95;9.50;;;;;;;3.34;100.00;98447.97;5087887;28;20087;-75
2024/01/22 06:06:20;;;;;;;37.35;9.32;;;;;;;3.33;100.00;98451.66;5070164;28;20023;-75
2024/01/22 06:08:48;;;;;;;42.45;10.80;;;;;;;3.35;100.00;98446.94;5077931;28;20031;-75
2024/01/22 06:11:15;;;;;;;41.45;9.20;;;;;;;3.40;100.00;98419.72;5073586;28;20081;-75
2024/01/22 06:13:43;;;;;;;54.53;10.70;;;;;;;3.39;100.00;98426.91;5074629;28;20045;-75
2024/01/22 06:16:13;;;;;;;47.42;9.95;;;;;;;3.41;100.00;98426.66;5056464;28;20032;-74
2024/01/22 06:18:39;;;;;;;47.15;10.25;;;;;;;3.39;100.00;98408.28;5057763;28;20052;-75
2024/01/22 06:21:06;;;;;;;48.97;10.20;;;;;;;3.45;100.00;98419.91;5075377;28;20032;-75
2024/01/22 06:23:32;;;;;;;48.70;9.25;;;;;;;3.41;100.00;98405.41;5074184;28;20044;-75
2024/01/22 06:25:58;;;;;;;46.75;8.85;;;;;;;3.49;100.00;98410.50;5091692;28;20050;-75
2024/01/22 06:28:25;;;;;;;51.88;10.13;;;;;;;3.41;100.00;98395.59;5074270;28;20032;-75
2024/01/22 06:30:51;;;;;;;47.65;9.65;;;;;;;3.51;100.00;98390.66;5072188;28;20502;-75
2024/01/22 06:33:17;;;;;;;42.83;7.50;;;;;;;3.49;100.00;98376.75;5100078;28;20055;-74
2024/01/22 06:35:43;;;;;;;46.38;8.98;;;;;;;3.54;100.00;98389.38;5088781;28;20052;-75
2024/01/22 06:38:08;;;;;;;36.00;8.00;;;;;;;3.56;100.00;98363.41;5058401;28;20368;-75
2024/01/22 06:40:34;;;;;;;38.97;8.77;;;;;;;3.57;100.00;98383.63;5072577;28;20032;-74
2024/01/22 06:42:59;;;;;;;46.08;9.55;;;;;;;3.49;100.00;98358.13;5073133;28;20029;-75
2024/01/22 06:45:26;;;;;;;47.30;9.02;;;;;;;3.59;100.00;98364.84;5072940;28;20396;-75
2024/01/22 06:47:54;;;;;;;49.58;9.55;;;;;;;3.65;100.00;98348.03;5074686;28;20047;-75
2024/01/22 06:50:39;;;;;;;44.50;8.80;;;;;;;3.67;100.00;98368.03;5069168;28;20029;-75
2024/01/22 06:53:24;;;;;;;40.58;8.43;;;;;;;3.69;100.00;98365.97;5056126;28;20032;-74
2024/01/22 06:55:50;;;;;;;41.53;8.07;;;;;;;3.71;100.00;98358.63;5072220;28;20037;-74
2024/01/22 06:58:17;;;;;;;41.65;7.90;;;;;;;3.75;100.00;98333.22;5047654;28;20013;-75
2024/01/22 07:00:43;;;;;;;35.95;7.20;;;;;;;3.75;100.00;98359.00;5073266;28;20094;-75
2024/01/22 07:03:08;;;;;;;36.35;8.15;;;;;;;3.74;100.00;98357.34;5074987;28;20029;-75
2024/01/22 07:05:34;;;;;;;37.25;6.97;;;;;;;3.79;100.00;98340.75;5076105;28;20028;-75
2024/01/22 07:08:00;;;;;;;43.08;8.23;;;;;;;3.80;100.00;98340.53;5058085;28;20056;-75
2024/01/22 07:10:25;;;;;;;44.08;7.68;;;;;;;3.80;100.00;98334.41;5058535;28;20490;-75
2024/01/22 07:12:50;;;;;;;38.95;7.38;;;;;;;3.67;100.00;98314.03;5076352;28;20037;-75
2024/01/22 07:15:16;;;;;;;50.70;8.60;;;;;;;3.74;100.00;98317.44;5078954;28;20449;-74
2024/01/22 07:17:42;;;;;;;44.13;7.80;;;;;;;3.72;100.00;98304.38;5076907;28;20024;-74
2024/01/22 07:20:08;;;;;;;48.92;9.13;;;;;;;3.73;100.00;98299.88;5078281;28;20391;-75
2024/01/22 07:22:36;;;;;;;45.90;7.63;;;;;;;3.89;100.00;98307.31;5069776;28;20128;-76
2024/01/22 07:25:03;;;;;;;48.58;8.32;;;;;;;3.92;100.00;98301.56;5077470;28;20028;-77
2024/01/22 07:27:28;;;;;;;38.63;7.55;;;;;;;3.93;100.00;98303.19;5076344;28;20147;-76
2024/01/22 07:29:53;;;;;;;37.88;6.68;;;;;;;3.99;100.00;98281.03;5076704;28;20067;-75
2024/01/22 07:32:19;;;;;;;48.50;8.00;;;;;;;4.02;100.00;98276.31;5083475;28;20028;-75
2024/01/22 07:34:44;;;;;;;39.42;7.57;;;;;;;4.03;100.00;98292.06;5097762;28;20067;-75
2024/01/22 07:37:10;;;;;;;41.38;7.50;;;;;;;3.93;100.00;98267.78;5096377;28;20024;-76
2024/01/22 07:39:37;;;;;;;33.20;6.57;;;;;;;4.08;100.00;98313.50;5096073;28;20031;-76
2024/01/22 07:42:02;;;;;;;29.27;6.07;;;;;;;3.78;100.00;98238.88;5114080;28;20120;-75
2024/01/22 07:44:28;;;;;;;41.35;7.10;;;;;;;3.65;100.00;98207.91;5080379;28;20031;-76
2024/01/22 07:46:55;;;;;;;37.88;6.85;;;;;;;4.12;100.00;98301.41;5079337;28;20036;-76
2024/01/22 07:49:23;;;;;;;52.55;8.23;;;;;;;4.11;100.00;98302.44;5113797;28;20035;-75
2024/01/22 07:51:49;;;;;;;36.55;6.88;;;;;;;3.72;100.00;98226.44;5098468;28;20028;-75
2024/01/22 07:54:14;;;;;;;42.75;6.85;;;;;;;4.14;100.00;98303.81;5109825;28;20051;-75
2024/01/22 07:56:40;;;;;;;35.50;6.80;;;;;;;4.16;100.00;98296.44;5110812;28;20032;-75
2024/01/22 07:59:05;;;;;;;27.83;5.15;;;;;;;4.09;100.00;98293.84;5105870;28;20047;-74
2024/01/22 08:01:31;;;;;;;32.58;5.90;;;;;;;4.18;100.00;98316.50;5084554;28;20047;-74
2024/01/22 08:03:57;;;;;;;44.97;7.57;;;;;;;4.19;100.00;98322.63;5104387;28;20083;-75
2024/01/22 08:06:22;;;;;;;47.15;7.13;;;;;;;4.02;100.00;98277.13;5100777;28;20031;-74
2024/01/22 08:08:47;;;;;;;38.97;5.43;;;;;;;4.22;100.00;98314.19;5117901;28;20066;-75
2024/01/22 08:11:13;;;;;;;33.47;6.22;;;;;;;4.27;100.00;98314.34;5100819;28;20071;-76
2024/01/22 08:13:38;;;;;;;44.63;7.22;;;;;;;4.27;100.00;98316.19;5116746;28;20035;-70
2024/01/22 08:16:04;;;;;;;32.70;6.65;;;;;;;4.20;100.00;98282.47;5095677;28;20036;-73
2024/01/22 08:18:29;;;;;;;38.35;5.78;;;;;;;4.21;100.00;98288.63;5114321;28;20038;-71
2024/01/22 08:20:55;;;;;;;34.03;5.30;;;;;;;4.40;100.00;98318.72;5113803;28;20032;-72
2024/01/22 08:23:39;;;;;;;36.63;5.65;;;;;;;4.43;100.00;98310.31;5112281;28;20031;-70
2024/01/22 08:26:24;;;;;;;37.78;6.15;;;;;;;4.45;100.00;98310.91;5110247;28;20024;-70
2024/01/22 08:28:49;;;;;;;37.28;5.30;;;;;;;4.44;100.00;98309.28;5109680;28;20024;-71
2024/01/22 08:31:17;;;;;;;45.17;6.25;;;;;;;4.41;100.00;98312.38;5111713;28;20056;-71
2024/01/22 08:33:43;;;;;;;37.13;5.47;;;;;;;4.41;100.00;98307.88;5132137;28;20096;-73
2024/01/22 08:36:10;;;;;;;40.05;6.15;;;;;;;4.42;100.00;98314.00;5129793;28;20048;-70
2024/01/22 08:38:35;;;;;;;34.42;5.72;;;;;;;4.43;100.00;98291.66;5114729;28;20032;-71
2024/01/22 08:41:01;;;;;;;35.10;5.38;;;;;;;4.43;100.00;98320.94;5116736;28;20012;-74
2024/01/22 08:43:27;;;;;;;39.13;5.10;;;;;;;4.46;100.00;98317.84;5114588;28;20024;-71
2024/01/22 08:45:59;;;;;;;38.30;5.07;;;;;;;4.43;100.00;98324.44;5105389;28;20032;-74
2024/01/22 08:48:25;;;;;;;49.40;5.78;;;;;;;4.46;100.00;98317.84;5107264;28;20039;-72
2024/01/22 08:50:50;;;;;;;34.83;4.97;;;;;;;4.31;100.00;98291.59;5113406;28;20036;-73
2024/01/22 08:53:16;;;;;;;43.85;5.55;;;;;;;4.44;100.00;98320.75;5096988;28;20028;-74
2024/01/22 08:55:41;;;;;;;44.28;6.13;;;;;;;4.50;100.00;98324.34;5095112;28;20363;-74
2024/01/22 08:58:07;;;;;;;40.60;5.25;;;;;;;4.53;100.00;98323.91;5096211;28;20024;-74
2024/01/22 09:00:32;;;;;;;36.00;5.30;;;;;;;4.54;100.00;98320.25;5094834;28;20555;-74
2024/01/22 09:02:57;;;;;;;37.63;5.18;;;;;;;4.57;100.00;98333.13;5111139;28;20032;-74
2024/01/22 09:05:23;;;;;;;33.08;6.22;;;;;;;4.58;100.00;98321.41;5076258;28;20063;-74
2024/01/22 09:07:48;;;;;;;35.75;4.90;;;;;;;4.61;100.00;98320.97;5093730;28;20024;-75
2024/01/22 09:10:15;;;;;;;40.40;5.93;;;;;;;4.52;100.00;98295.66;5095030;28;20036;-74
2024/01/22 09:12:40;;;;;;;41.88;4.90;;;;;;;4.68;100.00;98329.72;5093675;28;20076;-75
2024/01/22 09:15:06;;;;;;;40.42;5.93;;;;;;;4.74;100.00;98329.88;5095609;28;20077;-75
2024/01/22 09:17:33;;;;;;;43.67;6.68;;;;;;;4.80;100.00;98319.13;5093814;28;20020;-75
2024/01/22 09:19:59;;;;;;;37.70;6.05;;;;;;;4.76;100.00;98315.28;5095716;28;20381;-75
2024/01/22 09:22:28;;;;;;;37.33;5.90;;;;;;;4.88;100.00;98329.47;5099368;28;20036;-72
2024/01/22 09:25:13;;;;;;;42.50;6.38;;;;;;;4.91;100.00;98338.88;5086129;28;20136;-75
2024/01/22 09:27:38;;;;;;;34.97;4.88;;;;;;;4.84;100.00;98314.19;5093265;28;20123;-74
2024/01/22 09:30:05;;;;;;;41.28;6.05;;;;;;;4.95;100.00;98342.72;5094423;28;20059;-74
2024/01/22 09:32:32;;;;;;;45.10;5.10;;;;;;;4.93;100.00;98334.13;5077738;28;20028;-74
2024/01/22 09:34:57;;;;;;;45.42;5.28;;;;;;;4.95;100.00;98337.41;5095330;28;20044;-74
2024/01/22 09:37:23;;;;;;;33.50;4.40;;;;;;;4.95;100.00;98356.06;5121693;28;20027;-75
2024/01/22 09:39:50;;;;;;;41.47;5.25;;;;;;;4.92;100.00;98343.97;5093895;28;20038;-74
2024/01/22 09:42:16;;;;;;;46.85;5.50;;;;;;;4.90;100.00;98339.91;5077081;28;20027;-74
2024/01/22 09:44:43;;;;;;;52.13;6.53;;;;;;;5.00;100.00;98348.22;5084584;28;20028;-74
2024/01/22 09:47:09;;;;;;;46.55;5.70;;;;;;;5.01;100.00;98349.84;5110337;28;20032;-75
2024/01/22 09:49:36;;;;;;;55.03;7.10;;;;;;;5.02;100.00;98366.63;5083315;28;20036;-73
2024/01/22 09:52:02;;;;;;;44.90;5.90;;;;;;;5.03;100.00;98369.06;5074390;28;20034;-74
2024/01/22 09:54:29;;;;;;;52.67;6.47;;;;;;;4.95;100.00;98359.53;5056097;28;20133;-73
2024/01/22 09:56:55;;;;;;;54.33;6.43;;;;;;;4.93;100.00;98353.63;5072786;28;20097;-74
2024/01/22 09:59:23;;;;;;;50.45;6.80;;;;;;;5.08;100.00;98371.88;5073790;28;20028;-74
2024/01/22 10:01:50;;;;;;;65.47;8.43;;;;;;;5.11;100.00;98373.31;5074043;28;20047;-74
2024/01/22 10:04:16;;;;;;;65.15;8.27;;;;;;;5.10;100.00;98377.81;5074242;28;20043;-74
2024/01/22 10:06:43;;;;;;;58.72;8.80;;;;;;;5.12;100.00;98374.91;5073571;28;20024;-74
2024/01/22 10:09:09;;;;;;;60.85;7.88;;;;;;;5.13;100.00;98381.88;5056256;28;20025;-74
2024/01/22 10:11:35;;;;;;;67.22;8.82;;;;;;;5.14;100.00;98389.66;5072613;28;20043;-73
2024/01/22 10:14:01;;;;;;;58.97;7.93;;;;;;;5.14;100.00;98387.00;5072402;28;20032;-73
2024/01/22 10:16:27;;;;;;;62.60;9.27;;;;;;;5.12;100.00;98386.38;5072332;28;20390;-73
2024/01/22 10:19:24;;;;;;;63.80;8.75;;;;;;;5.07;100.00;98383.59;5077492;28;20020;-73
2024/01/22 10:22:00;;;;;;;68.25;8.65;;;;;;;5.09;100.00;98392.16;5074191;28;20025;-73
2024/01/22 10:24:26;;;;;;;77.40;10.88;;;;;;;5.07;100.00;98390.78;5056483;28;20024;-73
2024/01/22 10:26:52;;;;;;;67.90;9.18;;;;;;;5.09;100.00;98397.50;5057180;28;20036;-72
2024/01/22 10:29:21;;;;;;;68.10;9.80;;;;;;;5.12;100.00;98402.38;5056981;28;20025;-73
2024/01/22 10:31:54;;;;;;;70.10;9.10;;;;;;;5.18;100.00;98398.84;5072322;28;20025;-72
2024/01/22 10:34:20;;;;;;;79.88;11.32;;;;;;;5.13;100.00;98387.19;5089168;28;20536;-73
2024/01/22 10:37:06;;;;;;;78.20;11.48;;;;;;;5.16;100.00;98384.09;5072379;28;20052;-73
2024/01/22 10:39:32;;;;;;;76.65;10.63;;;;;;;5.25;100.00;98400.63;5071566;28;20028;-73
2024/01/22 10:42:26;;;;;;;74.28;10.48;;;;;;;5.29;100.00;98413.25;5058947;28;20466;-72
2024/01/22 10:44:52;;;;;;;82.18;10.50;;;;;;;5.32;100.00;98412.00;5059183;28;20028;-72
2024/01/22 10:47:19;;;;;;;77.43;10.68;;;;;;;5.34;100.00;98408.09;5076877;28;20047;-73
2024/01/22 10:49:46;;;;;;;86.30;11.52;;;;;;;5.42;100.00;98412.28;5077418;28;20402;-72
2024/01/22 10:52:13;;;;;;;88.80;12.63;;;;;;;5.36;100.00;98397.19;5076908;28;20032;-74
2024/01/22 10:54:40;;;;;;;83.53;10.15;;;;;;;5.49;100.00;98405.00;5093540;28;20029;-74
2024/01/22 10:57:13;;;;;;;79.18;10.82;;;;;;;5.29;100.00;98380.44;5059858;28;20031;-73
2024/01/22 10:59:42;;;;;;;85.45;12.18;;;;;;;5.46;100.00;98407.31;5075961;28;20588;-74
2024/01/22 11:02:16;;;;;;;77.28;10.73;;;;;;;5.53;100.00;98408.88;5081047;28;20036;-73
2024/01/22 11:04:44;;;;;;;67.97;10.13;;;;;;;5.58;100.00;98401.00;5081927;28;20425;-73
2024/01/22 11:07:12;;;;;;;84.28;11.65;;;;;;;5.63;100.00;98413.69;5078444;28;20097;-74
2024/01/22 11:09:39;;;;;;;76.05;10.45;;;;;;;5.63;100.00;98409.16;5077196;28;20079;-74
2024/01/22 11:12:09;;;;;;;73.57;10.93;;;;;;;5.65;100.00;98417.72;5077220;28;20024;-74
2024/01/22 11:14:42;;;;;;;72.18;10.63;;;;;;;5.62;100.00;98420.84;5061401;28;20032;-73
2024/01/22 11:17:13;;;;;;;84.53;10.85;;;;;;;5.64;100.00;98410.78;5078549;28;20028;-75
2024/01/22 11:19:39;;;;;;;86.47;11.07;;;;;;;5.67;100.00;98408.69;5044368;28;20067;-73